sensor_id;sensor_type;location;lat;lon;timestamp;temperature;humidity
46976;DHT22;32724;51.094;6.996;2023-08-31T00:01:08;11.20;99.90
46976;DHT22;32724;51.094;6.996;2023-08-31T00:03:35;11.30;99.90
46976;DHT22;32724;51.094;6.996;2023-08-31T00:06:02;11.40;99.90
46976;DHT22;32724;51.094;6.996;2023-08-31T00:08:29;11.40;99.90
46976;DHT22;32724;51.094;6.996;2023-08-31T00:10:58;11.40;99.90
46976;DHT22;32724;51.094;6.996;2023-08-31T00:13:25;11.40;99.90
46976;DHT22;32724;51.094;6.996;2023-08-31T00:15:54;11.40;99.90
46976;DHT22;32724;51.094;6.996;2023-08-31T00:18:20;11.50;99.90
46976;DHT22;32724;51.094;6.996;2023-08-31T00:20:46;11.50;99.90
46976;DHT22;32724;51.094;6.996;2023-08-31T00:23:11;11.50;99.90
46976;DHT22;32724;51.094;6.996;2023-08-31T00:25:37;11.50;99.90
46976;DHT22;32724;51.094;6.996;2023-08-31T00:28:03;11.50;99.90
46976;DHT22;32724;51.094;6.996;2023-08-31T00:30:31;11.40;99.90
46976;DHT22;32724;51.094;6.996;2023-08-31T00:32:58;11.40;99.90
46976;DHT22;32724;51.094;6.996;2023-08-31T00:35:26;11.30;99.90
46976;DHT22;32724;51.094;6.996;2023-08-31T00:37:53;11.30;99.90
46976;DHT22;32724;51.094;6.996;2023-08-31T00:40:27;11.30;99.90
46976;DHT22;32724;51.094;6.996;2023-08-31T00:42:53;11.20;99.90
46976;DHT22;32724;51.094;6.996;2023-08-31T00:45:19;11.30;99.90
46976;DHT22;32724;51.094;6.996;2023-08-31T00:47:46;11.30;99.90
46976;DHT22;32724;51.094;6.996;2023-08-31T00:50:12;11.30;99.90
46976;DHT22;32724;51.094;6.996;2023-08-31T00:52:39;11.40;99.90
46976;DHT22;32724;51.094;6.996;2023-08-31T00:55:05;11.50;99.90
46976;DHT22;32724;51.094;6.996;2023-08-31T00:57:31;11.40;99.90
46976;DHT22;32724;51.094;6.996;2023-08-31T00:59:56;11.50;99.90
46976;DHT22;32724;51.094;6.996;2023-08-31T01:07:47;11.30;99.90
46976;DHT22;32724;51.094;6.996;2023-08-31T01:10:25;11.30;99.90
46976;DHT22;32724;51.094;6.996;2023-08-31T01:13:08;11.30;99.90
46976;DHT22;32724;51.094;6.996;2023-08-31T01:15:41;11.30;99.90
46976;DHT22;32724;51.094;6.996;2023-08-31T01:18:09;11.30;99.90
46976;DHT22;32724;51.094;6.996;2023-08-31T01:20:44;11.30;99.90
46976;DHT22;32724;51.094;6.996;2023-08-31T01:23:19;11.30;99.90
46976;DHT22;32724;51.094;6.996;2023-08-31T01:25:46;11.30;99.90
46976;DHT22;32724;51.094;6.996;2023-08-31T01:28:13;11.30;99.90
46976;DHT22;32724;51.094;6.996;2023-08-31T01:30:39;11.20;99.90
46976;DHT22;32724;51.094;6.996;2023-08-31T01:33:05;11.20;99.90
46976;DHT22;32724;51.094;6.996;2023-08-31T01:35:37;11.10;99.90
46976;DHT22;32724;51.094;6.996;2023-08-31T01:38:05;11.00;99.90
46976;DHT22;32724;51.094;6.996;2023-08-31T01:40:35;10.90;99.90
46976;DHT22;32724;51.094;6.996;2023-08-31T01:43:03;10.80;99.90
46976;DHT22;32724;51.094;6.996;2023-08-31T01:45:30;10.80;99.90
46976;DHT22;32724;51.094;6.996;2023-08-31T01:47:58;10.70;99.90
46976;DHT22;32724;51.094;6.996;2023-08-31T01:50:24;10.70;99.90
46976;DHT22;32724;51.094;6.996;2023-08-31T01:52:51;10.60;99.90
46976;DHT22;32724;51.094;6.996;2023-08-31T01:55:18;10.60;99.90
46976;DHT22;32724;51.094;6.996;2023-08-31T01:57:44;10.50;99.90
46976;DHT22;32724;51.094;6.996;2023-08-31T02:00:10;10.50;99.90
46976;DHT22;32724;51.094;6.996;2023-08-31T02:02:36;10.50;99.90
46976;DHT22;32724;51.094;6.996;2023-08-31T02:05:02;10.40;99.90
46976;DHT22;32724;51.094;6.996;2023-08-31T02:07:30;10.40;99.90
46976;DHT22;32724;51.094;6.996;2023-08-31T02:09:55;10.40;99.90
46976;DHT22;32724;51.094;6.996;2023-08-31T02:12:21;10.30;99.90
46976;DHT22;32724;51.094;6.996;2023-08-31T02:14:47;10.30;99.90
46976;DHT22;32724;51.094;6.996;2023-08-31T02:17:12;10.30;99.90
46976;DHT22;32724;51.094;6.996;2023-08-31T02:19:38;10.20;99.90
46976;DHT22;32724;51.094;6.996;2023-08-31T02:22:03;10.20;99.90
46976;DHT22;32724;51.094;6.996;2023-08-31T02:24:29;10.10;99.90
46976;DHT22;32724;51.094;6.996;2023-08-31T02:26:56;10.00;99.90
46976;DHT22;32724;51.094;6.996;2023-08-31T02:29:21;10.10;99.90
46976;DHT22;32724;51.094;6.996;2023-08-31T02:31:47;10.00;99.90
46976;DHT22;32724;51.094;6.996;2023-08-31T02:34:12;9.90;99.90
46976;DHT22;32724;51.094;6.996;2023-08-31T02:36:38;9.90;99.90
46976;DHT22;32724;51.094;6.996;2023-08-31T02:39:03;9.90;99.90
46976;DHT22;32724;51.094;6.996;2023-08-31T02:41:29;9.90;99.90
46976;DHT22;32724;51.094;6.996;2023-08-31T02:43:55;9.90;99.90
46976;DHT22;32724;51.094;6.996;2023-08-31T02:46:20;9.90;99.90
46976;DHT22;32724;51.094;6.996;2023-08-31T02:48:46;9.80;99.90
46976;DHT22;32724;51.094;6.996;2023-08-31T02:51:12;9.80;99.90
46976;DHT22;32724;51.094;6.996;2023-08-31T02:53:37;9.90;99.90
46976;DHT22;32724;51.094;6.996;2023-08-31T02:56:03;9.90;99.90
46976;DHT22;32724;51.094;6.996;2023-08-31T02:58:29;9.90;99.90
46976;DHT22;32724;51.094;6.996;2023-08-31T03:00:54;9.90;99.90
46976;DHT22;32724;51.094;6.996;2023-08-31T03:03:21;9.90;99.90
46976;DHT22;32724;51.094;6.996;2023-08-31T03:05:47;9.90;99.90
46976;DHT22;32724;51.094;6.996;2023-08-31T03:08:12;9.90;99.90
46976;DHT22;32724;51.094;6.996;2023-08-31T03:10:38;9.90;99.90
46976;DHT22;32724;51.094;6.996;2023-08-31T03:13:04;10.00;99.90
46976;DHT22;32724;51.094;6.996;2023-08-31T03:15:32;10.00;99.90
46976;DHT22;32724;51.094;6.996;2023-08-31T03:17:59;10.10;99.90
46976;DHT22;32724;51.094;6.996;2023-08-31T03:20:25;10.10;99.90
46976;DHT22;32724;51.094;6.996;2023-08-31T03:22:50;10.10;99.90
46976;DHT22;32724;51.094;6.996;2023-08-31T03:25:16;10.10;99.90
46976;DHT22;32724;51.094;6.996;2023-08-31T03:27:41;10.10;99.90
46976;DHT22;32724;51.094;6.996;2023-08-31T03:30:08;10.10;99.90
46976;DHT22;32724;51.094;6.996;2023-08-31T03:32:34;10.10;99.90
46976;DHT22;32724;51.094;6.996;2023-08-31T03:35:01;10.20;99.90
46976;DHT22;32724;51.094;6.996;2023-08-31T03:37:28;10.20;99.90
46976;DHT22;32724;51.094;6.996;2023-08-31T03:39:53;10.30;99.90
46976;DHT22;32724;51.094;6.996;2023-08-31T03:42:19;10.40;99.90
46976;DHT22;32724;51.094;6.996;2023-08-31T03:44:44;10.50;99.90
46976;DHT22;32724;51.094;6.996;2023-08-31T03:47:10;10.60;99.90
46976;DHT22;32724;51.094;6.996;2023-08-31T03:49:35;10.30;99.90
46976;DHT22;32724;51.094;6.996;2023-08-31T03:52:01;10.40;99.90
46976;DHT22;32724;51.094;6.996;2023-08-31T03:54:27;10.40;99.90
46976;DHT22;32724;51.094;6.996;2023-08-31T03:56:52;10.40;99.90
46976;DHT22;32724;51.094;6.996;2023-08-31T03:59:18;10.30;99.90
46976;DHT22;32724;51.094;6.996;2023-08-31T04:01:44;10.20;99.90
46976;DHT22;32724;51.094;6.996;2023-08-31T04:04:09;10.20;99.90
46976;DHT22;32724;51.094;6.996;2023-08-31T04:06:35;10.10;99.90
46976;DHT22;32724;51.094;6.996;2023-08-31T04:09:00;10.20;99.90
46976;DHT22;32724;51.094;6.996;2023-08-31T04:11:26;10.30;99.90
46976;DHT22;32724;51.094;6.996;2023-08-31T04:13:52;10.50;99.90
46976;DHT22;32724;51.094;6.996;2023-08-31T04:16:17;10.70;99.90
46976;DHT22;32724;51.094;6.996;2023-08-31T04:18:43;10.80;99.90
46976;DHT22;32724;51.094;6.996;2023-08-31T04:21:09;10.90;99.90
46976;DHT22;32724;51.094;6.996;2023-08-31T04:23:35;10.90;99.90
46976;DHT22;32724;51.094;6.996;2023-08-31T04:26:00;11.00;99.90
46976;DHT22;32724;51.094;6.996;2023-08-31T04:28:34;11.00;99.90
46976;DHT22;32724;51.094;6.996;2023-08-31T04:30:59;11.10;99.90
46976;DHT22;32724;51.094;6.996;2023-08-31T04:33:25;11.10;99.90
46976;DHT22;32724;51.094;6.996;2023-08-31T04:35:52;11.10;99.90
46976;DHT22;32724;51.094;6.996;2023-08-31T04:38:17;11.20;99.90
46976;DHT22;32724;51.094;6.996;2023-08-31T04:40:43;11.20;99.90
46976;DHT22;32724;51.094;6.996;2023-08-31T04:43:08;11.30;99.90
46976;DHT22;32724;51.094;6.996;2023-08-31T04:45:34;11.30;99.90
46976;DHT22;32724;51.094;6.996;2023-08-31T04:48:00;11.30;99.90
46976;DHT22;32724;51.094;6.996;2023-08-31T04:50:25;11.40;99.90
46976;DHT22;32724;51.094;6.996;2023-08-31T04:52:51;11.50;99.90
46976;DHT22;32724;51.094;6.996;2023-08-31T04:55:16;11.50;99.90
46976;DHT22;32724;51.094;6.996;2023-08-31T04:57:42;11.50;99.90
46976;DHT22;32724;51.094;6.996;2023-08-31T05:00:08;11.40;99.90
46976;DHT22;32724;51.094;6.996;2023-08-31T05:02:34;11.40;99.90
46976;DHT22;32724;51.094;6.996;2023-08-31T05:05:00;11.40;99.90
46976;DHT22;32724;51.094;6.996;2023-08-31T05:07:25;11.40;99.90
46976;DHT22;32724;51.094;6.996;2023-08-31T05:09:51;11.40;99.90
46976;DHT22;32724;51.094;6.996;2023-08-31T05:12:17;11.40;99.90
46976;DHT22;32724;51.094;6.996;2023-08-31T05:14:43;11.50;99.90
46976;DHT22;32724;51.094;6.996;2023-08-31T05:17:08;11.50;99.90
46976;DHT22;32724;51.094;6.996;2023-08-31T05:19:34;11.60;99.90
46976;DHT22;32724;51.094;6.996;2023-08-31T05:22:00;11.50;99.90
46976;DHT22;32724;51.094;6.996;2023-08-31T05:24:25;11.60;99.90
46976;DHT22;32724;51.094;6.996;2023-08-31T05:26:51;11.60;99.90
46976;DHT22;32724;51.094;6.996;2023-08-31T05:29:16;11.70;99.90
46976;DHT22;32724;51.094;6.996;2023-08-31T05:31:42;11.60;99.90
46976;DHT22;32724;51.094;6.996;2023-08-31T05:34:09;11.70;99.90
46976;DHT22;32724;51.094;6.996;2023-08-31T05:36:35;11.80;99.90
46976;DHT22;32724;51.094;6.996;2023-08-31T05:39:02;11.80;99.90
46976;DHT22;32724;51.094;6.996;2023-08-31T05:41:27;11.80;99.90
46976;DHT22;32724;51.094;6.996;2023-08-31T05:43:53;11.80;99.90
46976;DHT22;32724;51.094;6.996;2023-08-31T05:46:18;11.70;99.90
46976;DHT22;32724;51.094;6.996;2023-08-31T05:48:44;11.70;99.90
46976;DHT22;32724;51.094;6.996;2023-08-31T05:51:10;12.20;99.90
46976;DHT22;32724;51.094;6.996;2023-08-31T05:53:36;12.00;99.90
46976;DHT22;32724;51.094;6.996;2023-08-31T05:56:01;11.90;99.90
46976;DHT22;32724;51.094;6.996;2023-08-31T05:58:34;11.90;99.90
46976;DHT22;32724;51.094;6.996;2023-08-31T06:01:03;11.80;99.90
46976;DHT22;32724;51.094;6.996;2023-08-31T06:03:29;12.10;99.90
46976;DHT22;32724;51.094;6.996;2023-08-31T06:05:57;12.50;99.90
46976;DHT22;32724;51.094;6.996;2023-08-31T06:08:22;12.90;99.90
46976;DHT22;32724;51.094;6.996;2023-08-31T06:10:48;13.50;99.90
46976;DHT22;32724;51.094;6.996;2023-08-31T06:13:14;13.90;99.90
46976;DHT22;32724;51.094;6.996;2023-08-31T06:15:39;14.30;99.90
46976;DHT22;32724;51.094;6.996;2023-08-31T06:18:06;14.20;99.90
46976;DHT22;32724;51.094;6.996;2023-08-31T06:20:32;14.50;99.90
46976;DHT22;32724;51.094;6.996;2023-08-31T06:22:58;14.90;99.90
46976;DHT22;32724;51.094;6.996;2023-08-31T06:25:24;15.20;99.90
46976;DHT22;32724;51.094;6.996;2023-08-31T06:27:50;15.40;99.90
46976;DHT22;32724;51.094;6.996;2023-08-31T06:30:16;15.50;99.90
46976;DHT22;32724;51.094;6.996;2023-08-31T06:32:45;15.60;99.90
46976;DHT22;32724;51.094;6.996;2023-08-31T06:35:12;15.60;99.90
46976;DHT22;32724;51.094;6.996;2023-08-31T06:37:39;15.70;99.90
46976;DHT22;32724;51.094;6.996;2023-08-31T06:40:10;15.70;99.90
46976;DHT22;32724;51.094;6.996;2023-08-31T06:42:36;15.70;99.90
46976;DHT22;32724;51.094;6.996;2023-08-31T06:45:05;15.80;99.90
46976;DHT22;32724;51.094;6.996;2023-08-31T06:47:31;15.80;99.90
46976;DHT22;32724;51.094;6.996;2023-08-31T06:49:57;15.80;99.90
46976;DHT22;32724;51.094;6.996;2023-08-31T06:52:28;15.70;99.90
46976;DHT22;32724;51.094;6.996;2023-08-31T06:54:54;15.70;99.90
46976;DHT22;32724;51.094;6.996;2023-08-31T06:57:24;15.50;99.90
46976;DHT22;32724;51.094;6.996;2023-08-31T06:59:50;15.50;99.90
46976;DHT22;32724;51.094;6.996;2023-08-31T07:02:16;15.50;99.90
46976;DHT22;32724;51.094;6.996;2023-08-31T07:04:42;15.50;99.90
46976;DHT22;32724;51.094;6.996;2023-08-31T07:07:08;15.50;99.90
46976;DHT22;32724;51.094;6.996;2023-08-31T07:09:34;15.50;99.90
46976;DHT22;32724;51.094;6.996;2023-08-31T07:12:00;15.60;99.90
46976;DHT22;32724;51.094;6.996;2023-08-31T07:14:27;15.60;99.90
46976;DHT22;32724;51.094;6.996;2023-08-31T07:16:53;15.10;99.90
46976;DHT22;32724;51.094;6.996;2023-08-31T07:19:19;15.30;99.90
46976;DHT22;32724;51.094;6.996;2023-08-31T07:21:44;15.30;99.90
46976;DHT22;32724;51.094;6.996;2023-08-31T07:24:10;15.50;99.90
46976;DHT22;32724;51.094;6.996;2023-08-31T07:26:36;15.60;99.90
46976;DHT22;32724;51.094;6.996;2023-08-31T07:29:02;15.80;99.90
46976;DHT22;32724;51.094;6.996;2023-08-31T07:31:33;16.00;99.90
46976;DHT22;32724;51.094;6.996;2023-08-31T07:33:58;16.00;99.90
46976;DHT22;32724;51.094;6.996;2023-08-31T07:36:25;16.00;99.90
46976;DHT22;32724;51.094;6.996;2023-08-31T07:38:50;16.20;99.90
46976;DHT22;32724;51.094;6.996;2023-08-31T07:41:16;16.30;99.90
46976;DHT22;32724;51.094;6.996;2023-08-31T07:43:41;16.20;99.90
46976;DHT22;32724;51.094;6.996;2023-08-31T07:46:07;16.40;99.90
46976;DHT22;32724;51.094;6.996;2023-08-31T07:48:32;16.70;99.90
46976;DHT22;32724;51.094;6.996;2023-08-31T07:50:58;16.80;99.90
46976;DHT22;32724;51.094;6.996;2023-08-31T07:53:23;17.00;99.90
46976;DHT22;32724;51.094;6.996;2023-08-31T07:55:56;17.10;99.90
46976;DHT22;32724;51.094;6.996;2023-08-31T07:58:22;17.00;99.90
46976;DHT22;32724;51.094;6.996;2023-08-31T08:00:48;16.90;99.90
46976;DHT22;32724;51.094;6.996;2023-08-31T08:03:14;16.80;99.90
46976;DHT22;32724;51.094;6.996;2023-08-31T08:05:40;17.00;99.90
46976;DHT22;32724;51.094;6.996;2023-08-31T08:08:06;17.00;99.90
46976;DHT22;32724;51.094;6.996;2023-08-31T08:10:32;17.30;99.90
46976;DHT22;32724;51.094;6.996;2023-08-31T08:12:57;17.30;99.90
46976;DHT22;32724;51.094;6.996;2023-08-31T08:15:24;17.30;99.90
46976;DHT22;32724;51.094;6.996;2023-08-31T08:17:49;17.40;99.90
46976;DHT22;32724;51.094;6.996;2023-08-31T08:20:15;17.50;99.90
46976;DHT22;32724;51.094;6.996;2023-08-31T08:22:41;17.70;99.90
46976;DHT22;32724;51.094;6.996;2023-08-31T08:25:07;17.60;99.90
46976;DHT22;32724;51.094;6.996;2023-08-31T08:27:32;17.70;99.90
46976;DHT22;32724;51.094;6.996;2023-08-31T08:30:01;17.40;99.90
46976;DHT22;32724;51.094;6.996;2023-08-31T08:32:27;17.40;99.90
46976;DHT22;32724;51.094;6.996;2023-08-31T08:34:52;17.40;99.90
46976;DHT22;32724;51.094;6.996;2023-08-31T08:37:19;17.50;99.90
46976;DHT22;32724;51.094;6.996;2023-08-31T08:39:48;17.40;99.90
46976;DHT22;32724;51.094;6.996;2023-08-31T08:42:17;17.50;99.90
46976;DHT22;32724;51.094;6.996;2023-08-31T08:44:43;17.60;99.90
46976;DHT22;32724;51.094;6.996;2023-08-31T08:47:11;17.80;99.90
46976;DHT22;32724;51.094;6.996;2023-08-31T08:49:37;17.90;99.90
46976;DHT22;32724;51.094;6.996;2023-08-31T08:52:03;18.10;99.90
46976;DHT22;32724;51.094;6.996;2023-08-31T08:54:30;18.00;99.90
46976;DHT22;32724;51.094;6.996;2023-08-31T08:56:56;18.00;99.90
46976;DHT22;32724;51.094;6.996;2023-08-31T08:59:22;17.80;99.90
46976;DHT22;32724;51.094;6.996;2023-08-31T09:01:48;17.90;99.90
46976;DHT22;32724;51.094;6.996;2023-08-31T09:04:14;18.20;99.90
46976;DHT22;32724;51.094;6.996;2023-08-31T09:06:40;18.50;99.90
46976;DHT22;32724;51.094;6.996;2023-08-31T09:09:08;18.60;99.90
46976;DHT22;32724;51.094;6.996;2023-08-31T09:11:35;18.70;99.90
46976;DHT22;32724;51.094;6.996;2023-08-31T09:14:17;19.10;99.90
46976;DHT22;32724;51.094;6.996;2023-08-31T09:16:48;19.30;99.90
46976;DHT22;32724;51.094;6.996;2023-08-31T09:19:21;19.40;99.90
46976;DHT22;32724;51.094;6.996;2023-08-31T09:21:48;19.80;99.90
46976;DHT22;32724;51.094;6.996;2023-08-31T09:24:14;20.20;99.90
46976;DHT22;32724;51.094;6.996;2023-08-31T09:26:53;20.20;99.90
46976;DHT22;32724;51.094;6.996;2023-08-31T09:29:19;20.30;99.90
46976;DHT22;32724;51.094;6.996;2023-08-31T09:31:45;20.20;99.90
46976;DHT22;32724;51.094;6.996;2023-08-31T09:34:15;20.30;99.90
46976;DHT22;32724;51.094;6.996;2023-08-31T09:36:41;20.40;99.90
46976;DHT22;32724;51.094;6.996;2023-08-31T09:39:07;20.40;99.90
46976;DHT22;32724;51.094;6.996;2023-08-31T09:41:35;20.60;99.90
46976;DHT22;32724;51.094;6.996;2023-08-31T09:44:17;20.70;99.90
46976;DHT22;32724;51.094;6.996;2023-08-31T09:46:44;20.60;99.90
46976;DHT22;32724;51.094;6.996;2023-08-31T09:49:13;20.60;99.90
46976;DHT22;32724;51.094;6.996;2023-08-31T09:51:43;20.60;99.90
46976;DHT22;32724;51.094;6.996;2023-08-31T09:54:11;20.60;99.90
46976;DHT22;32724;51.094;6.996;2023-08-31T09:56:44;20.60;99.90
46976;DHT22;32724;51.094;6.996;2023-08-31T09:59:11;20.50;99.90
46976;DHT22;32724;51.094;6.996;2023-08-31T10:01:38;20.50;99.90
46976;DHT22;32724;51.094;6.996;2023-08-31T10:04:04;20.40;99.90
46976;DHT22;32724;51.094;6.996;2023-08-31T10:06:32;20.60;99.90
46976;DHT22;32724;51.094;6.996;2023-08-31T10:08:58;20.50;99.90
46976;DHT22;32724;51.094;6.996;2023-08-31T10:11:25;20.60;99.90
46976;DHT22;32724;51.094;6.996;2023-08-31T10:13:51;20.40;99.90
46976;DHT22;32724;51.094;6.996;2023-08-31T10:16:19;20.20;99.90
46976;DHT22;32724;51.094;6.996;2023-08-31T10:18:45;19.90;99.90
46976;DHT22;32724;51.094;6.996;2023-08-31T10:21:12;19.90;99.90
46976;DHT22;32724;51.094;6.996;2023-08-31T10:23:44;19.90;99.90
46976;DHT22;32724;51.094;6.996;2023-08-31T10:26:10;20.00;99.90
46976;DHT22;32724;51.094;6.996;2023-08-31T10:28:41;20.20;99.90
46976;DHT22;32724;51.094;6.996;2023-08-31T10:31:17;20.30;99.90
46976;DHT22;32724;51.094;6.996;2023-08-31T10:33:44;20.40;99.90
46976;DHT22;32724;51.094;6.996;2023-08-31T10:36:20;20.40;99.90
46976;DHT22;32724;51.094;6.996;2023-08-31T10:38:47;20.50;99.90
46976;DHT22;32724;51.094;6.996;2023-08-31T10:41:24;20.60;99.90
46976;DHT22;32724;51.094;6.996;2023-08-31T10:46:25;21.10;99.90
46976;DHT22;32724;51.094;6.996;2023-08-31T10:49:00;21.20;99.90
46976;DHT22;32724;51.094;6.996;2023-08-31T10:51:28;21.10;99.90
46976;DHT22;32724;51.094;6.996;2023-08-31T10:57:07;20.60;99.90
46976;DHT22;32724;51.094;6.996;2023-08-31T10:59:52;20.50;99.90
46976;DHT22;32724;51.094;6.996;2023-08-31T11:02:43;20.40;99.90
46976;DHT22;32724;51.094;6.996;2023-08-31T11:05:15;20.60;99.90
46976;DHT22;32724;51.094;6.996;2023-08-31T11:07:48;20.80;99.90
46976;DHT22;32724;51.094;6.996;2023-08-31T11:10:15;20.70;99.90
46976;DHT22;32724;51.094;6.996;2023-08-31T11:12:53;20.70;99.90
46976;DHT22;32724;51.094;6.996;2023-08-31T11:15:22;20.60;99.90
46976;DHT22;32724;51.094;6.996;2023-08-31T11:17:51;20.40;99.90
46976;DHT22;32724;51.094;6.996;2023-08-31T11:20:19;20.40;99.90
46976;DHT22;32724;51.094;6.996;2023-08-31T11:22:47;20.10;99.90
46976;DHT22;32724;51.094;6.996;2023-08-31T11:25:15;20.30;99.90
46976;DHT22;32724;51.094;6.996;2023-08-31T11:27:41;20.70;99.90
46976;DHT22;32724;51.094;6.996;2023-08-31T11:30:15;20.80;99.90
46976;DHT22;32724;51.094;6.996;2023-08-31T11:32:48;20.90;99.90
46976;DHT22;32724;51.094;6.996;2023-08-31T11:35:15;21.10;99.90
46976;DHT22;32724;51.094;6.996;2023-08-31T11:37:44;21.30;99.90
46976;DHT22;32724;51.094;6.996;2023-08-31T11:40:11;21.50;99.90
46976;DHT22;32724;51.094;6.996;2023-08-31T11:42:40;21.40;99.90
46976;DHT22;32724;51.094;6.996;2023-08-31T11:45:06;21.70;99.90
46976;DHT22;32724;51.094;6.996;2023-08-31T11:47:32;21.60;99.90
46976;DHT22;32724;51.094;6.996;2023-08-31T11:49:59;21.80;99.90
46976;DHT22;32724;51.094;6.996;2023-08-31T11:52:27;22.20;99.90
46976;DHT22;32724;51.094;6.996;2023-08-31T11:54:53;22.20;99.90
46976;DHT22;32724;51.094;6.996;2023-08-31T11:57:19;22.40;99.80
46976;DHT22;32724;51.094;6.996;2023-08-31T11:59:50;22.20;99.90
46976;DHT22;32724;51.094;6.996;2023-08-31T12:02:19;22.10;99.90
46976;DHT22;32724;51.094;6.996;2023-08-31T12:04:46;22.00;99.90
46976;DHT22;32724;51.094;6.996;2023-08-31T12:07:20;21.90;99.90
46976;DHT22;32724;51.094;6.996;2023-08-31T12:09:47;21.80;99.90
46976;DHT22;32724;51.094;6.996;2023-08-31T12:12:20;21.70;99.90
46976;DHT22;32724;51.094;6.996;2023-08-31T12:14:46;21.70;99.90
46976;DHT22;32724;51.094;6.996;2023-08-31T12:17:12;21.70;99.90
46976;DHT22;32724;51.094;6.996;2023-08-31T12:19:38;21.70;99.90
46976;DHT22;32724;51.094;6.996;2023-08-31T12:22:05;21.80;99.90
46976;DHT22;32724;51.094;6.996;2023-08-31T12:24:40;21.80;99.90
46976;DHT22;32724;51.094;6.996;2023-08-31T12:27:09;21.80;99.90
46976;DHT22;32724;51.094;6.996;2023-08-31T12:29:35;21.80;99.90
46976;DHT22;32724;51.094;6.996;2023-08-31T12:32:01;21.70;99.90
46976;DHT22;32724;51.094;6.996;2023-08-31T12:34:26;21.60;99.90
46976;DHT22;32724;51.094;6.996;2023-08-31T12:36:52;21.80;99.90
46976;DHT22;32724;51.094;6.996;2023-08-31T12:39:18;21.80;99.90
46976;DHT22;32724;51.094;6.996;2023-08-31T12:41:43;21.70;99.90
46976;DHT22;32724;51.094;6.996;2023-08-31T12:44:09;21.50;99.90
46976;DHT22;32724;51.094;6.996;2023-08-31T12:46:35;21.10;99.90
46976;DHT22;32724;51.094;6.996;2023-08-31T12:49:01;21.00;99.90
46976;DHT22;32724;51.094;6.996;2023-08-31T12:51:29;21.00;99.90
46976;DHT22;32724;51.094;6.996;2023-08-31T12:53:54;21.30;99.90
46976;DHT22;32724;51.094;6.996;2023-08-31T12:56:20;21.50;99.90
46976;DHT22;32724;51.094;6.996;2023-08-31T12:58:53;21.60;99.90
46976;DHT22;32724;51.094;6.996;2023-08-31T13:01:20;21.80;99.90
46976;DHT22;32724;51.094;6.996;2023-08-31T13:03:46;21.70;99.90
46976;DHT22;32724;51.094;6.996;2023-08-31T13:06:13;21.80;99.90
46976;DHT22;32724;51.094;6.996;2023-08-31T13:08:39;21.60;99.90
46976;DHT22;32724;51.094;6.996;2023-08-31T13:11:05;21.50;99.90
46976;DHT22;32724;51.094;6.996;2023-08-31T13:13:32;21.40;99.90
46976;DHT22;32724;51.094;6.996;2023-08-31T13:15:58;21.30;99.90
46976;DHT22;32724;51.094;6.996;2023-08-31T13:18:23;21.30;99.90
46976;DHT22;32724;51.094;6.996;2023-08-31T13:20:53;21.20;99.90
46976;DHT22;32724;51.094;6.996;2023-08-31T13:23:19;21.30;99.90
46976;DHT22;32724;51.094;6.996;2023-08-31T13:25:45;21.20;99.90
46976;DHT22;32724;51.094;6.996;2023-08-31T13:28:11;21.00;99.90
46976;DHT22;32724;51.094;6.996;2023-08-31T13:30:36;20.80;99.90
46976;DHT22;32724;51.094;6.996;2023-08-31T13:33:02;20.90;99.90
46976;DHT22;32724;51.094;6.996;2023-08-31T13:35:29;20.90;99.90
46976;DHT22;32724;51.094;6.996;2023-08-31T13:37:55;21.00;99.90
46976;DHT22;32724;51.094;6.996;2023-08-31T13:40:20;20.80;99.90
46976;DHT22;32724;51.094;6.996;2023-08-31T13:42:57;20.80;99.90
46976;DHT22;32724;51.094;6.996;2023-08-31T13:45:26;20.80;99.90
46976;DHT22;32724;51.094;6.996;2023-08-31T13:47:52;20.70;99.90
46976;DHT22;32724;51.094;6.996;2023-08-31T13:50:17;20.70;99.90
46976;DHT22;32724;51.094;6.996;2023-08-31T13:52:43;20.80;99.90
46976;DHT22;32724;51.094;6.996;2023-08-31T13:55:09;20.80;99.90
46976;DHT22;32724;51.094;6.996;2023-08-31T13:57:35;20.80;99.90
46976;DHT22;32724;51.094;6.996;2023-08-31T14:00:00;20.80;99.90
46976;DHT22;32724;51.094;6.996;2023-08-31T14:02:26;20.80;99.90
46976;DHT22;32724;51.094;6.996;2023-08-31T14:04:53;20.90;99.90
46976;DHT22;32724;51.094;6.996;2023-08-31T14:07:19;21.00;99.90
46976;DHT22;32724;51.094;6.996;2023-08-31T14:09:44;20.90;99.90
46976;DHT22;32724;51.094;6.996;2023-08-31T14:12:10;20.90;99.90
46976;DHT22;32724;51.094;6.996;2023-08-31T14:14:35;21.00;99.90
46976;DHT22;32724;51.094;6.996;2023-08-31T14:17:01;21.00;99.90
46976;DHT22;32724;51.094;6.996;2023-08-31T14:19:28;21.10;99.90
46976;DHT22;32724;51.094;6.996;2023-08-31T14:21:54;21.10;99.90
46976;DHT22;32724;51.094;6.996;2023-08-31T14:24:19;21.00;99.90
46976;DHT22;32724;51.094;6.996;2023-08-31T14:26:45;21.00;99.90
46976;DHT22;32724;51.094;6.996;2023-08-31T14:29:11;20.90;99.90
46976;DHT22;32724;51.094;6.996;2023-08-31T14:31:37;20.70;99.90
46976;DHT22;32724;51.094;6.996;2023-08-31T14:34:02;20.60;99.90
46976;DHT22;32724;51.094;6.996;2023-08-31T14:36:28;20.50;99.90
46976;DHT22;32724;51.094;6.996;2023-08-31T14:38:54;20.30;99.90
46976;DHT22;32724;51.094;6.996;2023-08-31T14:41:19;20.40;99.90
46976;DHT22;32724;51.094;6.996;2023-08-31T14:43:45;20.60;99.90
46976;DHT22;32724;51.094;6.996;2023-08-31T14:46:10;20.90;99.90
46976;DHT22;32724;51.094;6.996;2023-08-31T14:48:36;21.00;99.90
46976;DHT22;32724;51.094;6.996;2023-08-31T14:51:02;21.20;99.40
46976;DHT22;32724;51.094;6.996;2023-08-31T14:53:28;21.20;99.90
46976;DHT22;32724;51.094;6.996;2023-08-31T14:55:53;21.20;99.90
46976;DHT22;32724;51.094;6.996;2023-08-31T14:58:19;21.10;99.90
46976;DHT22;32724;51.094;6.996;2023-08-31T15:00:45;20.90;99.90
46976;DHT22;32724;51.094;6.996;2023-08-31T15:03:11;20.70;99.90
46976;DHT22;32724;51.094;6.996;2023-08-31T15:05:38;20.60;99.90
46976;DHT22;32724;51.094;6.996;2023-08-31T15:08:07;20.40;99.90
46976;DHT22;32724;51.094;6.996;2023-08-31T15:10:32;20.40;99.90
46976;DHT22;32724;51.094;6.996;2023-08-31T15:12:58;20.30;99.90
46976;DHT22;32724;51.094;6.996;2023-08-31T15:15:25;20.30;99.90
46976;DHT22;32724;51.094;6.996;2023-08-31T15:17:51;20.50;99.90
46976;DHT22;32724;51.094;6.996;2023-08-31T15:20:17;20.50;99.90
46976;DHT22;32724;51.094;6.996;2023-08-31T15:22:42;20.60;99.90
46976;DHT22;32724;51.094;6.996;2023-08-31T15:25:08;20.80;99.90
46976;DHT22;32724;51.094;6.996;2023-08-31T15:27:34;21.10;99.90
46976;DHT22;32724;51.094;6.996;2023-08-31T15:30:00;21.10;99.90
46976;DHT22;32724;51.094;6.996;2023-08-31T15:32:25;21.10;99.90
46976;DHT22;32724;51.094;6.996;2023-08-31T15:34:51;21.10;99.70
46976;DHT22;32724;51.094;6.996;2023-08-31T15:37:17;21.00;99.90
46976;DHT22;32724;51.094;6.996;2023-08-31T15:39:42;21.00;99.40
46976;DHT22;32724;51.094;6.996;2023-08-31T15:42:08;20.80;99.90